createdAt,value
2023-01-19T00:01:38.806Z,99943.25
2023-01-19T00:04:06.623Z,99943.81
2023-01-19T00:06:34.542Z,99941.75
2023-01-19T00:09:02.143Z,99946.34
2023-01-19T00:11:29.877Z,99942.41
2023-01-19T00:13:58.729Z,99946.25
2023-01-19T00:16:26.510Z,99946.34
2023-01-19T00:18:54.258Z,99953.88
2023-01-19T00:21:22.287Z,99939.38
2023-01-19T00:23:52.552Z,99949.78
2023-01-19T00:26:22.084Z,99942.78
2023-01-19T00:28:50.450Z,99953.53
2023-01-19T00:31:21.843Z,99954.06
2023-01-19T00:33:51.470Z,99953.47
2023-01-19T00:36:19.549Z,99958.91
2023-01-19T00:38:47.229Z,99946.56
2023-01-19T00:41:14.864Z,99960.44
2023-01-19T00:43:42.438Z,99954.56
2023-01-19T00:46:10.791Z,99962.03
2023-01-19T00:48:38.382Z,99958.53
2023-01-19T00:51:06.037Z,99959.84
2023-01-19T00:53:33.733Z,99957.50
2023-01-19T00:56:01.315Z,99967.75
2023-01-19T00:58:29.095Z,99965.34
2023-01-19T01:01:03.461Z,99968.06
2023-01-19T01:03:32.566Z,99973.16
2023-01-19T01:06:00.235Z,99970.25
2023-01-19T01:08:27.885Z,99982.91
2023-01-19T01:10:56.630Z,99976.78
2023-01-19T01:13:27.359Z,99975.50
2023-01-19T01:15:59.025Z,99959.28
2023-01-19T01:18:26.666Z,99977.78
2023-01-19T01:21:05.371Z,99981.78
2023-01-19T01:23:34.619Z,99987.00
2023-01-19T01:26:02.177Z,99994.25
2023-01-19T01:28:29.743Z,99996.59
2023-01-19T01:30:57.506Z,99988.44
2023-01-19T01:33:40.884Z,99998.56
2023-01-19T01:36:11.605Z,99998.88
2023-01-19T01:38:41.263Z,100000.56
2023-01-19T01:41:09.603Z,99996.38
2023-01-19T01:43:44.778Z,99997.03
2023-01-19T01:46:15.497Z,99992.78
2023-01-19T01:48:57.777Z,100003.97
2023-01-19T01:51:41.841Z,100008.50
2023-01-19T01:54:32.328Z,99995.84
2023-01-19T01:57:05.321Z,99989.88
2023-01-19T01:59:39.275Z,99991.81
2023-01-19T02:02:37.658Z,99983.41
2023-01-19T02:05:34.310Z,99972.50
2023-01-19T02:08:33.758Z,99976.38
2023-01-19T02:11:21.956Z,99980.69
2023-01-19T02:13:49.949Z,99980.69
2023-01-19T02:16:19.347Z,99980.97
2023-01-19T02:18:47.111Z,99970.66
2023-01-19T02:21:36.662Z,99976.81
2023-01-19T02:24:04.985Z,99988.22
2023-01-19T02:26:44.223Z,99982.03
2023-01-19T02:29:18.514Z,99989.09
2023-01-19T02:31:46.834Z,99978.47
2023-01-19T02:34:20.679Z,99991.56
2023-01-19T02:37:03.382Z,99990.31
2023-01-19T02:39:44.726Z,99983.06
2023-01-19T02:42:18.853Z,99992.47
2023-01-19T02:44:50.428Z,99979.19
2023-01-19T02:47:18.375Z,99975.47
2023-01-19T02:49:58.756Z,99975.19
2023-01-19T02:52:28.048Z,99978.41
2023-01-19T02:55:16.822Z,99973.56
2023-01-19T02:58:21.675Z,99972.63
2023-01-19T03:01:04.883Z,99970.25
2023-01-19T03:03:41.853Z,99973.91
2023-01-19T03:06:31.268Z,99968.44
2023-01-19T03:09:09.745Z,99977.53
2023-01-19T03:11:46.402Z,99980.03
2023-01-19T03:14:21.939Z,99964.06
2023-01-19T03:16:56.459Z,99973.44
2023-01-19T03:19:31.663Z,99973.41
2023-01-19T03:22:05.356Z,99988.63
2023-01-19T03:24:41.590Z,99987.81
2023-01-19T03:27:18.035Z,99984.97
2023-01-19T03:29:53.129Z,99987.34
2023-01-19T03:32:29.717Z,99981.34
2023-01-19T03:35:01.169Z,99991.47
2023-01-19T03:37:31.667Z,99982.84
2023-01-19T03:39:59.980Z,99980.44
2023-01-19T03:42:28.667Z,99980.34
2023-01-19T03:44:59.854Z,99957.22
2023-01-19T03:47:28.321Z,99991.09
2023-01-19T03:49:58.217Z,99994.72
2023-01-19T03:52:33.461Z,99985.50
2023-01-19T03:55:04.364Z,99975.38
2023-01-19T03:57:32.625Z,99976.72
2023-01-19T04:00:00.208Z,99978.78
2023-01-19T04:02:28.383Z,99983.03
2023-01-19T04:04:56.073Z,99980.09
2023-01-19T04:07:23.707Z,99967.75
2023-01-19T04:09:51.272Z,99970.88
2023-01-19T04:12:18.921Z,99964.50
2023-01-19T04:14:46.518Z,99967.50
2023-01-19T04:17:14.365Z,99964.53
2023-01-19T04:19:43.083Z,99974.56
2023-01-19T04:22:10.834Z,99976.53
2023-01-19T04:24:38.388Z,99980.53
2023-01-19T04:27:06.004Z,99966.34
2023-01-19T04:29:33.660Z,99978.28
2023-01-19T04:32:01.293Z,99975.66
2023-01-19T04:34:28.915Z,99975.78
2023-01-19T04:36:56.536Z,99978.78
2023-01-19T04:39:24.142Z,99975.38
2023-01-19T04:41:52.312Z,99984.44
2023-01-19T04:44:19.884Z,99992.78
2023-01-19T04:46:48.036Z,99983.72
2023-01-19T04:49:15.682Z,100003.75
2023-01-19T04:51:43.584Z,100002.06
2023-01-19T04:54:11.181Z,99997.63
2023-01-19T04:56:40.843Z,99990.97
2023-01-19T04:59:08.458Z,99995.69
2023-01-19T05:01:36.717Z,99999.03
2023-01-19T05:04:06.837Z,99987.28
2023-01-19T05:06:35.128Z,99997.53
2023-01-19T05:09:03.537Z,100009.03
2023-01-19T05:11:31.240Z,100005.91
2023-01-19T05:13:58.872Z,100009.16
2023-01-19T05:16:26.848Z,99997.31
2023-01-19T05:18:54.487Z,100013.00
2023-01-19T05:21:22.276Z,100009.34
2023-01-19T05:23:49.893Z,100022.88
2023-01-19T05:26:17.655Z,100007.94
2023-01-19T05:28:45.257Z,100003.09
2023-01-19T05:31:13.065Z,100004.84
2023-01-19T05:33:41.125Z,100009.25
2023-01-19T05:36:09.083Z,100013.94
2023-01-19T05:38:36.652Z,100016.03
2023-01-19T05:41:04.358Z,100008.47
2023-01-19T05:43:31.981Z,100014.50
2023-01-19T05:45:59.586Z,100023.84
2023-01-19T05:48:27.206Z,100020.28
2023-01-19T05:50:58.766Z,100025.50
2023-01-19T05:53:26.723Z,100027.97
2023-01-19T05:55:59.998Z,100026.47
2023-01-19T05:58:28.391Z,100005.94
2023-01-19T06:00:56.054Z,100018.44
2023-01-19T06:03:24.592Z,100015.69
2023-01-19T06:05:52.318Z,100028.56
2023-01-19T06:08:19.972Z,100027.38
2023-01-19T06:10:47.570Z,100030.41
2023-01-19T06:13:15.283Z,100040.47
2023-01-19T06:15:44.927Z,100042.28
2023-01-19T06:18:14.893Z,100037.34
2023-01-19T06:20:42.693Z,100042.38
2023-01-19T06:23:10.891Z,100036.94
2023-01-19T06:25:39.161Z,100039.16
2023-01-19T06:28:06.740Z,100038.00
2023-01-19T06:30:34.395Z,100036.06
2023-01-19T06:33:02.400Z,100029.78
2023-01-19T06:35:30.177Z,100036.78
2023-01-19T06:37:57.816Z,100032.34
2023-01-19T06:40:25.437Z,100047.00
2023-01-19T06:42:53.105Z,100046.59
2023-01-19T06:45:20.710Z,100047.84
2023-01-19T06:47:48.282Z,100052.28
2023-01-19T06:50:16.200Z,100048.34
2023-01-19T06:52:43.759Z,100041.09
2023-01-19T06:55:12.159Z,100059.72
2023-01-19T06:57:40.187Z,100055.25
2023-01-19T07:00:09.066Z,100060.69
2023-01-19T07:02:37.092Z,100067.50
2023-01-19T07:05:06.788Z,100073.94
2023-01-19T07:07:34.779Z,100082.03
2023-01-19T07:10:02.493Z,100089.25
2023-01-19T07:12:30.661Z,100086.88
2023-01-19T07:14:58.239Z,100083.28
2023-01-19T07:17:26.023Z,100074.06
2023-01-19T07:19:53.647Z,100089.22
2023-01-19T07:22:21.308Z,100098.84
2023-01-19T07:24:49.013Z,100086.69
2023-01-19T07:27:16.686Z,100089.84
2023-01-19T07:29:44.357Z,100098.31
2023-01-19T07:32:12.771Z,100098.50
2023-01-19T07:34:40.377Z,100092.13
2023-01-19T07:37:07.943Z,100089.03
2023-01-19T07:39:36.713Z,100095.75
2023-01-19T07:42:04.544Z,100093.50
2023-01-19T07:44:32.592Z,100089.06
2023-01-19T07:47:00.194Z,100082.25
2023-01-19T07:49:27.827Z,100109.69
2023-01-19T07:51:56.525Z,100106.25
2023-01-19T07:54:24.350Z,100108.13
2023-01-19T07:56:55.089Z,100107.03
2023-01-19T07:59:22.769Z,100105.50
2023-01-19T08:01:50.588Z,100097.84
2023-01-19T08:04:19.071Z,100102.56
2023-01-19T08:06:47.409Z,100101.00
2023-01-19T08:09:16.117Z,100097.69
2023-01-19T08:11:43.892Z,100098.63
2023-01-19T08:14:11.467Z,100105.63
2023-01-19T08:16:39.071Z,100099.41
2023-01-19T08:19:06.671Z,100102.84
2023-01-19T08:21:35.879Z,100106.88
2023-01-19T08:24:03.669Z,100105.75
2023-01-19T08:26:35.288Z,100105.44
2023-01-19T08:29:05.503Z,100111.97
2023-01-19T08:31:33.240Z,100111.00
2023-01-19T08:34:00.903Z,100110.75
2023-01-19T08:36:28.566Z,100121.84
2023-01-19T08:38:56.163Z,100124.91
2023-01-19T08:41:23.802Z,100120.16
2023-01-19T08:43:51.596Z,100115.53
2023-01-19T08:46:21.903Z,100126.22
2023-01-19T08:48:50.276Z,100104.44
2023-01-19T08:51:18.477Z,100123.09
2023-01-19T08:53:46.437Z,100123.41
2023-01-19T08:56:14.528Z,100128.00
2023-01-19T08:58:46.717Z,100126.97
2023-01-19T09:01:18.539Z,100118.41
2023-01-19T09:03:47.016Z,100118.50
2023-01-19T09:06:18.388Z,100125.94
2023-01-19T09:08:47.492Z,100126.25
2023-01-19T09:11:17.340Z,100122.41
2023-01-19T09:13:45.177Z,100120.59
2023-01-19T09:16:14.834Z,100112.88
2023-01-19T09:18:42.736Z,100117.50
2023-01-19T09:21:10.414Z,100121.53
2023-01-19T09:23:38.292Z,100121.50
2023-01-19T09:26:06.418Z,100121.00
2023-01-19T09:28:34.121Z,100117.53
2023-01-19T09:31:08.812Z,100128.47
2023-01-19T09:33:36.518Z,100122.41
2023-01-19T09:36:04.321Z,100124.13
2023-01-19T09:38:32.917Z,100129.94
2023-01-19T09:41:01.357Z,100130.97
2023-01-19T09:43:53.655Z,100130.56
2023-01-19T09:46:34.404Z,100122.44
2023-01-19T09:49:18.030Z,100125.34
2023-01-19T09:51:49.129Z,100113.09
2023-01-19T09:54:22.014Z,100125.69
2023-01-19T09:56:52.768Z,100124.84
2023-01-19T09:59:30.300Z,100124.56
2023-01-19T10:02:35.078Z,100131.19
2023-01-19T10:05:42.338Z,100124.00
2023-01-19T10:08:39.208Z,100137.97
2023-01-19T10:11:34.471Z,100131.97
2023-01-19T10:14:34.142Z,100116.72
2023-01-19T10:17:28.380Z,100123.59
2023-01-19T10:19:58.581Z,100121.78
2023-01-19T10:22:28.771Z,100119.41
2023-01-19T10:25:01.835Z,100130.31
2023-01-19T10:27:34.370Z,100118.44
2023-01-19T10:30:02.390Z,100120.72
2023-01-19T10:32:35.934Z,100121.88
2023-01-19T10:35:21.864Z,100110.09
2023-01-19T10:37:54.610Z,100108.81
2023-01-19T10:40:37.250Z,100096.88
2023-01-19T10:43:44.342Z,100110.78
2023-01-19T10:46:25.428Z,100093.09
2023-01-19T10:48:54.873Z,100092.41
2023-01-19T10:51:23.293Z,100089.50
2023-01-19T10:54:02.492Z,100103.09
2023-01-19T10:56:37.121Z,100101.69
2023-01-19T10:59:07.229Z,100089.44
2023-01-19T11:01:38.091Z,100099.16
2023-01-19T11:04:26.950Z,100098.94
2023-01-19T11:07:13.878Z,100086.47
2023-01-19T11:09:41.644Z,100094.50
2023-01-19T11:12:25.205Z,100085.56
2023-01-19T11:14:53.779Z,100086.75
2023-01-19T11:17:25.916Z,100095.63
2023-01-19T11:20:00.986Z,100082.53
2023-01-19T11:22:33.545Z,100085.81
2023-01-19T11:25:04.951Z,100081.94
2023-01-19T11:27:36.075Z,100081.13
2023-01-19T11:30:22.873Z,100083.94
2023-01-19T11:32:50.873Z,100074.63
2023-01-19T11:35:41.009Z,100072.91
2023-01-19T11:38:22.566Z,100074.84
2023-01-19T11:41:04.095Z,100074.19
2023-01-19T11:43:48.292Z,100065.03
2023-01-19T11:46:17.668Z,100081.50
2023-01-19T11:49:02.858Z,100088.75
2023-01-19T11:52:12.719Z,100092.75
2023-01-19T11:54:57.723Z,100072.91
2023-01-19T11:57:26.126Z,100084.19
2023-01-19T11:59:54.845Z,100079.16
2023-01-19T12:02:44.770Z,100077.78
2023-01-19T12:05:20.057Z,100069.91
2023-01-19T12:07:49.991Z,100077.78
2023-01-19T12:10:35.698Z,100081.63
2023-01-19T12:13:04.219Z,100083.03
2023-01-19T12:15:44.925Z,100082.00
2023-01-19T12:18:25.382Z,100072.91
2023-01-19T12:20:55.842Z,100081.25
2023-01-19T12:23:46.288Z,100070.16
2023-01-19T12:26:16.559Z,100067.88
2023-01-19T12:28:47.728Z,100075.53
2023-01-19T12:31:21.659Z,100077.19
2023-01-19T12:33:50.696Z,100065.84
2023-01-19T12:36:30.371Z,100078.28
2023-01-19T12:39:21.026Z,100083.91
2023-01-19T12:42:03.842Z,100064.09
2023-01-19T12:44:34.219Z,100073.47
2023-01-19T12:47:20.925Z,100076.81
2023-01-19T12:50:00.840Z,100074.25
2023-01-19T12:52:31.394Z,100072.06
2023-01-19T12:55:14.316Z,100067.66
2023-01-19T12:58:14.963Z,100079.66
2023-01-19T13:00:48.783Z,100076.91
2023-01-19T13:03:16.450Z,100088.22
2023-01-19T13:05:43.952Z,100092.13
2023-01-19T13:08:12.529Z,100095.19
2023-01-19T13:11:10.804Z,100092.22
2023-01-19T13:13:44.933Z,100091.78
2023-01-19T13:16:18.540Z,100095.97
2023-01-19T13:19:06.152Z,100096.16
2023-01-19T13:21:39.574Z,100093.31
2023-01-19T13:24:24.112Z,100083.84
2023-01-19T13:26:51.673Z,100094.16
2023-01-19T13:29:36.052Z,100095.97
2023-01-19T13:32:13.369Z,100072.56
2023-01-19T13:34:57.643Z,100102.91
2023-01-19T13:37:39.985Z,100092.75
2023-01-19T13:40:15.962Z,100089.50
2023-01-19T13:42:44.349Z,100109.25
2023-01-19T13:45:25.560Z,100109.13
2023-01-19T13:47:56.735Z,100112.81
2023-01-19T13:50:28.466Z,100120.69
2023-01-19T13:52:58.846Z,100118.59
2023-01-19T13:55:30.348Z,100127.44
2023-01-19T13:57:58.228Z,100129.84
2023-01-19T14:00:29.553Z,100131.44
2023-01-19T14:03:23.725Z,100136.19
2023-01-19T14:05:53.856Z,100129.25
2023-01-19T14:08:23.064Z,100138.78
2023-01-19T14:10:53.819Z,100141.09
2023-01-19T14:13:29.591Z,100148.09
2023-01-19T14:16:07.738Z,100135.81
2023-01-19T14:18:36.497Z,100147.41
2023-01-19T14:21:11.842Z,100131.88
2023-01-19T14:23:54.927Z,100154.03
2023-01-19T14:26:38.066Z,100150.63
2023-01-19T14:29:31.753Z,100154.19
2023-01-19T14:32:03.433Z,100150.63
2023-01-19T14:34:41.668Z,100153.16
2023-01-19T14:37:30.479Z,100146.28
2023-01-19T14:40:11.181Z,100161.19
2023-01-19T14:42:49.505Z,100162.28
2023-01-19T14:45:39.258Z,100163.69
2023-01-19T14:48:20.508Z,100164.03
2023-01-19T14:51:02.817Z,100149.25
2023-01-19T14:53:37.620Z,100163.41
2023-01-19T14:56:06.718Z,100169.25
2023-01-19T14:58:35.807Z,100158.72
2023-01-19T15:01:04.571Z,100160.56
2023-01-19T15:03:44.026Z,100169.78
2023-01-19T15:06:17.230Z,100158.50
2023-01-19T15:08:45.511Z,100167.28
2023-01-19T15:11:23.652Z,100169.28
2023-01-19T15:13:51.720Z,100177.13
2023-01-19T15:16:20.072Z,100168.34
2023-01-19T15:18:48.690Z,100178.38
2023-01-19T15:21:26.714Z,100182.47
2023-01-19T15:23:55.301Z,100185.78
2023-01-19T15:26:26.116Z,100182.38
2023-01-19T15:28:55.781Z,100176.53
2023-01-19T15:31:25.904Z,100179.63
2023-01-19T15:33:53.551Z,100184.69
2023-01-19T15:36:24.146Z,100173.06
2023-01-19T15:38:52.008Z,100187.31
2023-01-19T15:41:29.656Z,100198.78
2023-01-19T15:43:57.941Z,100195.78
2023-01-19T15:46:25.893Z,100199.22
2023-01-19T15:48:54.473Z,100198.59
2023-01-19T15:51:27.656Z,100208.53
2023-01-19T15:53:55.398Z,100216.41
2023-01-19T15:56:27.272Z,100212.38
2023-01-19T15:58:55.893Z,100224.06
2023-01-19T16:01:32.155Z,100222.44
2023-01-19T16:04:06.285Z,100220.09
2023-01-19T16:06:34.327Z,100215.53
2023-01-19T16:09:03.793Z,100216.00
2023-01-19T16:11:34.234Z,100207.53
2023-01-19T16:14:02.365Z,100211.00
2023-01-19T16:16:30.370Z,100210.06
2023-01-19T16:18:58.436Z,100215.72
2023-01-19T16:21:26.031Z,100222.16
2023-01-19T16:23:54.329Z,100218.75
2023-01-19T16:26:35.143Z,100224.97
2023-01-19T16:29:08.659Z,100228.88
2023-01-19T16:31:42.382Z,100223.22
2023-01-19T16:34:11.458Z,100229.59
2023-01-19T16:36:41.875Z,100223.59
2023-01-19T16:39:14.085Z,100235.25
2023-01-19T16:41:43.088Z,100237.16
2023-01-19T16:44:13.122Z,100242.78
2023-01-19T16:46:44.195Z,100231.63
2023-01-19T16:49:11.653Z,100236.91
2023-01-19T16:51:39.650Z,100245.38
2023-01-19T16:54:07.927Z,100244.38
2023-01-19T16:56:35.455Z,100245.81
2023-01-19T16:59:03.108Z,100240.59
2023-01-19T17:01:30.954Z,100246.81
2023-01-19T17:03:58.580Z,100247.50
2023-01-19T17:06:26.542Z,100252.66
2023-01-19T17:08:54.429Z,100251.28
2023-01-19T17:11:28.468Z,100257.00
2023-01-19T17:13:59.319Z,100253.25
2023-01-19T17:16:30.026Z,100246.19
2023-01-19T17:19:00.044Z,100256.22
2023-01-19T17:21:28.207Z,100252.09
2023-01-19T17:23:57.295Z,100258.38
2023-01-19T17:26:33.803Z,100259.19
2023-01-19T17:29:06.465Z,100263.66
2023-01-19T17:31:35.118Z,100267.81
2023-01-19T17:34:03.416Z,100243.00
2023-01-19T17:36:33.093Z,100255.09
2023-01-19T17:39:06.159Z,100264.16
2023-01-19T17:41:35.593Z,100264.94
2023-01-19T17:44:05.241Z,100259.22
2023-01-19T17:46:37.692Z,100266.69
2023-01-19T17:49:07.443Z,100272.41
2023-01-19T17:51:35.715Z,100270.00
2023-01-19T17:54:04.679Z,100254.81
2023-01-19T17:56:36.791Z,100279.25
2023-01-19T17:59:07.642Z,100281.63
2023-01-19T18:01:39.812Z,100284.97
2023-01-19T18:04:09.095Z,100285.31
2023-01-19T18:06:37.967Z,100283.50
2023-01-19T18:09:07.336Z,100278.69
2023-01-19T18:11:36.217Z,100287.28
2023-01-19T18:14:05.358Z,100266.97
2023-01-19T18:16:33.262Z,100284.00
2023-01-19T18:19:01.009Z,100289.94
2023-01-19T18:21:30.219Z,100289.47
2023-01-19T18:24:03.816Z,100292.88
2023-01-19T18:26:34.648Z,100297.56
2023-01-19T18:29:02.291Z,100298.78
2023-01-19T18:31:30.657Z,100298.13
2023-01-19T18:33:59.097Z,100296.81
2023-01-19T18:36:26.988Z,100300.00
2023-01-19T18:38:54.845Z,100301.38
2023-01-19T18:41:22.553Z,100315.91
2023-01-19T18:43:51.872Z,100315.47
2023-01-19T18:46:21.143Z,100308.19
2023-01-19T18:48:48.847Z,100313.66
2023-01-19T18:51:16.963Z,100309.38
2023-01-19T18:53:45.152Z,100330.00
2023-01-19T18:56:15.811Z,100329.25
2023-01-19T18:58:44.641Z,100329.19
2023-01-19T19:01:23.506Z,100334.50
2023-01-19T19:03:53.883Z,100328.88
2023-01-19T19:06:23.419Z,100330.41
2023-01-19T19:08:52.807Z,100342.00
2023-01-19T19:11:23.024Z,100353.75
2023-01-19T19:13:58.581Z,100351.19
2023-01-19T19:16:26.919Z,100362.00
2023-01-19T19:18:54.869Z,100360.69
2023-01-19T19:21:25.426Z,100351.75
2023-01-19T19:23:58.173Z,100369.78
2023-01-19T19:26:28.073Z,100371.03
2023-01-19T19:28:55.864Z,100372.72
2023-01-19T19:31:26.013Z,100380.31
2023-01-19T19:33:57.837Z,100368.00
2023-01-19T19:36:28.095Z,100368.81
2023-01-19T19:38:56.036Z,100378.34
2023-01-19T19:41:27.004Z,100390.38
2023-01-19T19:43:55.781Z,100394.63
2023-01-19T19:46:24.391Z,100398.44
2023-01-19T19:48:53.689Z,100399.72
2023-01-19T19:51:27.587Z,100399.88
2023-01-19T19:53:58.869Z,100394.72
2023-01-19T19:56:30.308Z,100408.53
2023-01-19T19:58:59.496Z,100407.97
2023-01-19T20:01:32.924Z,100411.94
2023-01-19T20:04:13.160Z,100414.88
2023-01-19T20:06:44.549Z,100418.53
2023-01-19T20:09:14.281Z,100424.25
2023-01-19T20:11:44.580Z,100423.75
2023-01-19T20:14:14.106Z,100425.19
2023-01-19T20:16:42.169Z,100429.06
2023-01-19T20:19:10.178Z,100422.72
2023-01-19T20:21:41.788Z,100424.88
2023-01-19T20:24:18.442Z,100441.59
2023-01-19T20:26:52.537Z,100440.38
2023-01-19T20:29:20.928Z,100441.34
2023-01-19T20:31:54.906Z,100447.72
2023-01-19T20:34:32.923Z,100454.53
2023-01-19T20:37:01.989Z,100452.88
2023-01-19T20:39:33.153Z,100443.69
2023-01-19T20:42:01.613Z,100466.72
2023-01-19T20:44:30.130Z,100465.25
2023-01-19T20:46:57.932Z,100469.88
2023-01-19T20:49:25.747Z,100463.72
2023-01-19T20:51:54.072Z,100466.72
2023-01-19T20:54:27.288Z,100468.31
2023-01-19T20:56:54.985Z,100468.56
2023-01-19T20:59:23.547Z,100477.69
2023-01-19T21:01:51.384Z,100481.44
2023-01-19T21:04:19.133Z,100476.38
2023-01-19T21:06:46.917Z,100474.00
2023-01-19T21:09:14.509Z,100474.72
2023-01-19T21:11:42.209Z,100488.94
2023-01-19T21:14:09.945Z,100477.88
2023-01-19T21:16:37.800Z,100488.34
2023-01-19T21:19:05.772Z,100494.19
2023-01-19T21:21:33.570Z,100499.44
2023-01-19T21:24:04.411Z,100502.16
2023-01-19T21:26:33.339Z,100510.41
2023-01-19T21:29:02.434Z,100503.09
2023-01-19T21:31:30.969Z,100502.38
2023-01-19T21:33:58.835Z,100485.63
2023-01-19T21:36:26.756Z,100516.56
2023-01-19T21:39:00.091Z,100517.34
2023-01-19T21:41:29.798Z,100522.00
2023-01-19T21:43:58.559Z,100527.25
2023-01-19T21:46:29.080Z,100531.88
2023-01-19T21:49:02.603Z,100535.28
2023-01-19T21:51:35.577Z,100537.91
2023-01-19T21:54:05.779Z,100546.47
2023-01-19T21:56:34.408Z,100547.22
2023-01-19T21:59:03.236Z,100546.41
2023-01-19T22:01:32.760Z,100550.38
2023-01-19T22:04:00.674Z,100558.84
2023-01-19T22:06:28.685Z,100557.63
2023-01-19T22:08:57.888Z,100562.19
2023-01-19T22:11:25.665Z,100566.78
2023-01-19T22:13:54.148Z,100577.47
2023-01-19T22:16:23.344Z,100576.56
2023-01-19T22:19:02.209Z,100565.34
2023-01-19T22:21:33.883Z,100570.25
2023-01-19T22:24:04.307Z,100574.66
2023-01-19T22:26:33.988Z,100571.88
2023-01-19T22:29:03.098Z,100573.38
2023-01-19T22:31:31.503Z,100583.75
2023-01-19T22:33:59.251Z,100586.28
2023-01-19T22:36:33.962Z,100587.66
2023-01-19T22:39:09.130Z,100589.59
2023-01-19T22:41:41.305Z,100600.97
2023-01-19T22:44:22.581Z,100594.63
2023-01-19T22:46:54.588Z,100592.72
2023-01-19T22:49:22.325Z,100609.75
2023-01-19T22:51:50.190Z,100615.41
2023-01-19T22:54:17.785Z,100604.78
2023-01-19T22:56:45.811Z,100612.22
2023-01-19T22:59:13.381Z,100617.16
2023-01-19T23:01:43.555Z,100608.88
2023-01-19T23:04:15.530Z,100625.47
2023-01-19T23:06:46.629Z,100617.84
2023-01-19T23:09:15.263Z,100616.56
2023-01-19T23:11:50.199Z,100627.38
2023-01-19T23:14:22.146Z,100647.81
2023-01-19T23:16:49.894Z,100629.81
2023-01-19T23:19:18.412Z,100628.13
2023-01-19T23:21:46.206Z,100628.88
2023-01-19T23:24:14.012Z,100633.44
2023-01-19T23:26:41.617Z,100629.44
2023-01-19T23:29:14.500Z,100648.72
2023-01-19T23:31:48.200Z,100650.50
2023-01-19T23:34:16.974Z,100639.50
2023-01-19T23:36:45.584Z,100653.03
2023-01-19T23:39:22.330Z,100650.47
2023-01-19T23:41:50.390Z,100651.41
2023-01-19T23:44:18.529Z,100648.97
2023-01-19T23:46:46.782Z,100648.34
2023-01-19T23:49:14.615Z,100654.75
2023-01-19T23:51:42.284Z,100649.06
2023-01-19T23:54:10.127Z,100653.31
2023-01-19T23:56:38.723Z,100657.06
2023-01-19T23:59:12.701Z,100650.53
